createdAt,value
2018-09-11T03:06:06.369Z,0.00
2018-09-11T03:08:17.788Z,0.00
2018-09-11T03:08:41.397Z,0.00
2018-09-11T03:09:21.196Z,0.00
2018-09-11T03:10:24.855Z,0.00
2018-09-11T03:11:21.758Z,0.00
2018-09-11T03:12:24.444Z,0.00
2018-09-11T03:13:21.557Z,0.00
2018-09-11T03:14:21.423Z,0.00
2018-09-11T03:15:21.106Z,0.00
2018-09-11T03:16:23.263Z,0.00
2018-09-11T03:17:21.465Z,0.00
2018-09-11T03:18:24.048Z,0.00
2018-09-11T03:19:22.907Z,0.00
2018-09-11T03:20:21.951Z,0.00
2018-09-11T03:21:21.332Z,0.00
2018-09-11T03:22:21.297Z,0.00
2018-09-11T03:23:20.319Z,0.00
2018-09-11T03:24:22.835Z,0.00
2018-09-11T03:25:20.715Z,0.00
2018-09-11T03:26:20.214Z,0.00
2018-09-11T03:27:20.820Z,0.00
2018-09-11T03:28:20.655Z,0.00
2018-09-11T03:29:21.211Z,0.00
2018-09-11T03:30:31.475Z,0.00
2018-09-11T03:31:23.997Z,0.00
2018-09-11T03:32:24.988Z,0.00
2018-09-11T03:33:26.522Z,0.00
2018-09-11T03:36:26.045Z,0.00
2018-09-11T03:37:28.258Z,0.00
2018-09-11T03:38:25.531Z,0.00
2018-09-11T03:39:25.456Z,0.00
2018-09-11T03:41:25.527Z,0.00
2018-09-11T03:42:23.792Z,0.00
2018-09-11T03:43:23.555Z,0.00
2018-09-11T03:46:30.892Z,0.00
2018-09-11T03:47:31.289Z,0.00
2018-09-11T03:48:32.765Z,0.00
2018-09-11T03:49:38.777Z,0.00
2018-09-11T03:51:10.156Z,0.00
2018-09-11T03:53:14.926Z,0.00
2018-09-11T03:54:23.924Z,0.00
2018-09-11T03:55:15.454Z,0.00
2018-09-11T03:56:16.503Z,0.00
2018-09-11T03:57:15.264Z,0.00
2018-09-11T03:58:15.416Z,0.00
2018-09-11T03:59:15.492Z,0.00
2018-09-11T04:00:16.254Z,0.00
2018-09-11T04:01:16.265Z,0.00
2018-09-11T04:02:17.930Z,0.00
2018-09-11T04:03:16.953Z,0.00
2018-09-11T04:04:15.937Z,0.00
2018-09-11T04:05:17.025Z,0.00
2018-09-11T04:06:14.180Z,0.00
2018-09-11T04:07:14.304Z,0.00
2018-09-11T04:08:14.428Z,0.00
2018-09-11T04:09:15.351Z,0.00
2018-09-11T04:10:14.839Z,0.00
2018-09-11T04:11:14.933Z,0.00
2018-09-11T04:12:15.141Z,0.00
2018-09-11T04:13:15.211Z,0.00
2018-09-11T04:14:15.439Z,0.00
2018-09-11T04:15:15.643Z,0.00
2018-09-11T04:16:15.830Z,0.00
2018-09-11T04:17:16.114Z,0.00
2018-09-11T04:18:16.221Z,0.00
2018-09-11T04:19:16.306Z,0.00
2018-09-11T04:20:16.452Z,0.00
2018-09-11T06:16:00.141Z,3320.00
2018-09-11T06:23:26.223Z,4168.00
2018-09-11T06:24:18.764Z,4324.00
2018-09-11T08:38:25.580Z,19520.00
2018-09-11T08:39:25.638Z,19968.00
2018-09-11T08:40:25.638Z,20832.00
2018-09-11T08:41:25.831Z,20256.00
2018-09-11T08:54:48.874Z,23968.00
2018-09-11T09:12:31.158Z,32576.00
2018-09-11T09:13:44.846Z,33024.00
2018-09-11T09:14:52.331Z,33120.00
2018-09-11T09:15:34.279Z,34432.00
2018-09-11T09:28:21.543Z,41472.00
2018-09-11T09:30:21.381Z,42944.00
2018-09-11T09:31:21.094Z,41696.00
2018-09-11T09:32:21.237Z,44896.00
2018-09-11T09:33:21.514Z,46240.00
2018-09-11T09:34:19.799Z,45888.00
2018-09-11T09:37:22.331Z,47168.00
2018-09-11T09:48:01.223Z,52960.00
2018-09-11T09:50:56.779Z,48608.00
2018-09-11T09:52:12.423Z,50336.00
2018-09-11T09:52:55.753Z,52928.00
2018-09-11T09:53:54.252Z,43328.00
2018-09-11T09:54:51.317Z,51008.00
2018-09-11T09:55:54.294Z,48480.00
2018-09-11T09:56:51.678Z,46336.00
2018-09-11T09:57:53.633Z,52672.00
2018-09-11T09:58:51.891Z,52928.00
2018-09-11T09:59:53.776Z,49472.00
2018-09-11T10:00:52.729Z,55136.00
2018-09-11T10:01:55.916Z,52672.00
2018-09-11T10:02:52.713Z,48544.00
2018-09-11T10:03:52.791Z,46176.00
2018-09-11T10:04:53.062Z,47456.00
2018-09-11T10:05:53.244Z,49408.00
2018-09-11T10:06:53.300Z,48736.00
2018-09-11T10:07:53.471Z,50336.00
2018-09-11T10:08:53.799Z,49088.00
2018-09-11T10:09:53.920Z,51712.00
2018-09-11T10:10:54.205Z,55744.00
2018-09-11T10:11:54.991Z,57568.00
2018-09-11T10:12:54.649Z,54112.00
2018-09-11T10:13:54.851Z,52672.00
2018-09-11T10:14:55.026Z,57440.00
2018-09-11T10:15:54.848Z,54112.00
2018-09-11T10:16:55.316Z,47136.00
2018-09-11T10:17:55.263Z,44992.00
2018-09-11T10:18:55.391Z,48224.00
2018-09-11T10:19:56.025Z,52832.00
2018-09-11T10:20:56.415Z,54560.00
2018-09-11T10:21:56.554Z,51200.00
2018-09-11T10:22:56.357Z,49408.00
2018-09-11T10:23:56.593Z,48800.00
2018-09-11T10:24:56.813Z,48480.00
2018-09-11T10:25:56.704Z,57888.00
2018-09-11T10:26:56.957Z,51584.00
2018-09-11T10:27:57.142Z,50816.00
2018-09-11T10:28:57.481Z,56448.00
2018-09-11T10:29:57.652Z,55296.00
2018-09-11T10:30:57.722Z,47072.00
2018-09-11T10:31:58.100Z,53152.00
2018-09-11T10:32:58.115Z,52480.00
2018-09-11T10:33:58.329Z,53952.00
2018-09-11T10:34:58.449Z,59360.00
2018-09-11T10:35:58.834Z,62176.00
2018-09-11T10:36:59.024Z,59040.00
2018-09-11T10:37:58.970Z,64864.00
2018-09-11T10:38:59.404Z,65888.00
2018-09-11T10:39:59.295Z,63264.00
2018-09-11T10:40:59.680Z,61152.00
2018-09-11T10:42:01.708Z,59104.00
2018-09-11T10:42:59.931Z,63296.00
2018-09-11T10:44:00.111Z,75008.00
2018-09-11T10:45:00.808Z,70016.00
2018-09-11T10:46:01.072Z,65568.00
2018-09-11T10:47:00.912Z,72512.00
2018-09-11T10:48:01.007Z,65216.00
2018-09-11T10:49:01.133Z,64960.00
2018-09-11T10:50:01.179Z,60544.00
2018-09-11T10:51:01.528Z,59008.00
2018-09-11T10:52:01.561Z,60608.00
2018-09-11T10:53:01.759Z,62208.00
2018-09-11T10:54:01.943Z,64608.00
2018-09-11T10:55:02.220Z,69664.00
2018-09-11T10:56:02.390Z,66304.00
2018-09-11T10:57:02.497Z,63936.00
2018-09-11T10:58:02.803Z,57056.00
2018-09-11T10:59:02.901Z,60704.00
2018-09-11T11:00:03.022Z,53952.00
2018-09-11T11:01:03.195Z,46976.00
2018-09-11T11:02:03.510Z,70240.00
2018-09-11T11:03:03.521Z,72512.00
2018-09-11T11:04:03.875Z,67232.00
2018-09-11T11:05:04.065Z,71776.00
2018-09-11T11:06:04.193Z,76704.00
2018-09-11T11:07:04.311Z,73184.00
2018-09-11T11:08:04.470Z,74208.00
2018-09-11T11:09:04.784Z,73376.00
2018-09-11T11:10:04.856Z,71392.00
2018-09-11T11:11:05.068Z,66784.00
2018-09-11T11:12:05.797Z,68224.00
2018-09-11T11:13:05.650Z,66848.00
2018-09-11T11:14:05.703Z,69216.00
2018-09-11T11:15:05.898Z,72064.00
2018-09-11T11:16:06.075Z,73504.00
2018-09-11T11:17:06.417Z,72544.00
2018-09-11T11:18:06.518Z,70016.00
2018-09-11T11:19:07.425Z,72576.00
2018-09-11T11:20:06.994Z,81536.00
2018-09-11T11:21:07.045Z,74912.00
2018-09-11T11:22:07.218Z,71648.00
2018-09-11T11:23:07.401Z,71904.00
2018-09-11T11:24:08.448Z,71392.00
2018-09-11T11:25:07.734Z,68768.00
2018-09-11T11:26:07.983Z,73568.00
2018-09-11T11:27:08.391Z,68672.00
2018-09-11T11:28:08.266Z,66432.00
2018-09-11T11:29:08.526Z,69504.00
2018-09-11T11:30:08.776Z,73952.00
2018-09-11T11:31:08.897Z,71840.00
2018-09-11T11:32:09.335Z,59744.00
2018-09-11T11:33:09.523Z,68160.00
2018-09-11T11:34:09.614Z,65568.00
2018-09-11T11:35:09.751Z,67520.00
2018-09-11T11:36:10.057Z,73920.00
2018-09-11T11:37:10.347Z,70848.00
2018-09-11T11:38:10.425Z,70016.00
2018-09-11T11:39:10.573Z,72864.00
2018-09-11T11:40:10.868Z,78912.00
2018-09-11T11:41:11.109Z,84736.00
2018-09-11T11:42:11.085Z,79360.00
2018-09-11T11:43:11.302Z,66496.00
2018-09-11T11:44:11.362Z,63520.00
2018-09-11T11:45:11.560Z,65856.00
2018-09-11T11:46:11.841Z,74624.00
2018-09-11T11:47:12.171Z,74496.00
2018-09-11T11:48:12.113Z,81952.00
2018-09-11T11:49:12.327Z,82528.00
2018-09-11T11:50:12.422Z,75424.00
2018-09-11T11:51:12.699Z,80800.00
2018-09-11T11:52:12.794Z,88000.00
2018-09-11T11:53:13.018Z,90368.00
2018-09-11T11:54:13.147Z,79872.00
2018-09-11T11:55:13.810Z,76384.00
2018-09-11T11:56:14.612Z,85504.00
2018-09-11T11:57:13.768Z,89568.00
2018-09-11T11:58:13.977Z,86432.00
2018-09-11T12:00:14.475Z,82304.00
2018-09-11T12:01:14.629Z,82080.00
2018-09-11T12:02:15.268Z,84096.00
2018-09-11T12:03:14.851Z,89856.00
2018-09-11T12:04:15.289Z,88992.00
2018-09-11T12:05:17.769Z,84064.00
2018-09-11T12:11:29.233Z,82464.00
2018-09-11T12:13:58.555Z,80832.00
2018-09-11T12:14:22.070Z,76512.00
2018-09-11T12:15:20.909Z,71136.00
2018-09-11T12:16:21.285Z,83360.00
2018-09-11T12:17:21.237Z,85888.00
2018-09-11T12:18:21.720Z,94880.00
2018-09-11T12:19:21.526Z,94272.00
2018-09-11T12:20:21.721Z,87776.00
2018-09-11T12:21:21.951Z,89472.00
2018-09-11T12:22:22.358Z,88032.00
2018-09-11T12:23:23.197Z,83616.00
2018-09-11T12:27:06.352Z,91776.00
2018-09-11T12:40:46.633Z,91808.00
2018-09-11T12:41:44.726Z,92320.00
2018-09-11T12:43:42.202Z,100640.00
2018-09-11T12:44:42.324Z,94048.00
2018-09-11T12:45:42.593Z,87008.00
2018-09-11T12:46:43.226Z,83328.00
2018-09-11T12:47:43.311Z,90944.00
2018-09-11T12:48:43.237Z,99200.00
2018-09-11T12:49:43.228Z,94016.00
2018-09-11T12:50:43.455Z,88416.00
2018-09-11T12:58:06.160Z,98592.00
2018-09-11T13:05:06.913Z,94432.00
2018-09-11T13:14:47.293Z,93120.00
2018-09-11T13:15:24.305Z,95488.00
2018-09-11T13:16:49.521Z,98720.00
2018-09-11T13:18:23.929Z,90272.00
2018-09-11T13:19:20.118Z,93792.00
2018-09-11T13:20:21.073Z,90208.00
2018-09-11T13:21:21.283Z,85632.00
2018-09-11T13:22:20.864Z,85024.00
2018-09-11T13:28:29.708Z,81792.00
2018-09-11T13:29:36.359Z,88096.00
2018-09-11T13:33:03.806Z,88128.00
2018-09-11T13:38:00.633Z,82784.00
2018-09-11T13:40:49.053Z,94368.00
2018-09-11T13:41:45.813Z,94880.00
2018-09-11T14:01:01.334Z,76992.00
2018-09-11T14:01:55.226Z,72672.00
2018-09-11T14:03:51.584Z,80032.00
2018-09-11T14:04:51.807Z,77056.00
2018-09-11T14:25:08.100Z,84864.00
2018-09-11T14:48:16.322Z,52032.00
2018-09-11T14:57:47.100Z,69632.00
2018-09-11T15:02:32.935Z,73600.00
2018-09-11T15:04:00.717Z,68832.00
2018-09-11T15:38:49.973Z,63552.00
2018-09-11T15:54:40.821Z,5744.00
2018-09-11T15:55:38.756Z,4528.00
2018-09-11T15:56:35.771Z,4016.00
2018-09-11T15:57:36.155Z,4140.00
2018-09-11T15:58:36.402Z,4228.00
2018-09-11T15:59:38.437Z,4156.00
2018-09-11T16:00:37.338Z,4116.00
2018-09-11T16:23:14.282Z,3424.00
2018-09-11T16:23:37.266Z,3400.00
2018-09-11T16:24:17.831Z,3372.00
2018-09-11T16:26:11.477Z,3304.00
2018-09-11T16:26:38.732Z,3284.00
2018-09-11T16:28:11.775Z,3272.00
2018-09-11T16:28:40.579Z,3240.00
2018-09-11T16:29:30.248Z,3196.00
2018-09-11T16:30:17.418Z,3132.00
2018-09-11T16:31:24.330Z,3068.00
2018-09-11T16:32:21.881Z,3008.00
2018-09-11T16:33:15.877Z,2948.00
2018-09-11T16:34:13.657Z,2964.00
2018-09-11T16:35:12.485Z,2848.00
2018-09-11T16:36:11.752Z,2832.00
2018-09-11T16:37:12.632Z,2764.00
2018-09-11T16:38:11.991Z,2688.00
2018-09-11T16:39:12.201Z,2660.00
2018-09-11T16:40:12.528Z,2452.00
2018-09-11T16:41:13.336Z,2636.00
2018-09-11T16:42:13.335Z,2612.00
2018-09-11T16:43:13.591Z,2560.00
2018-09-11T16:44:13.340Z,2484.00
2018-09-11T16:45:13.267Z,2416.00
2018-09-11T16:46:14.049Z,2332.00
2018-09-11T16:47:13.596Z,2312.00
2018-09-11T16:48:13.671Z,2244.00
2018-09-11T16:49:16.378Z,2236.00
2018-09-11T16:50:16.588Z,2232.00
2018-09-11T16:51:14.952Z,2216.00
2018-09-11T16:52:15.311Z,2220.00
2018-09-11T16:53:18.140Z,2180.00
2018-09-11T16:54:15.849Z,2220.00
2018-09-11T16:59:50.488Z,2116.00
2018-09-11T17:00:57.760Z,2192.00
2018-09-11T17:02:01.091Z,2072.00
2018-09-11T17:03:09.276Z,2004.00
